createdAt,value
2019-06-27T00:01:52.248Z,28.00
2019-06-27T00:04:20.736Z,28.00
2019-06-27T00:06:49.522Z,28.00
2019-06-27T00:09:19.643Z,27.90
2019-06-27T00:11:48.190Z,27.90
2019-06-27T00:14:16.755Z,27.90
2019-06-27T00:16:45.580Z,27.80
2019-06-27T00:19:14.068Z,27.80
2019-06-27T00:21:42.612Z,27.80
2019-06-27T00:24:11.173Z,27.70
2019-06-27T00:26:55.838Z,27.70
2019-06-27T00:29:10.193Z,27.70
2019-06-27T00:31:38.730Z,27.70
2019-06-27T00:34:07.221Z,27.70
2019-06-27T00:36:35.760Z,27.60
2019-06-27T00:39:06.077Z,27.60
2019-06-27T00:41:34.613Z,27.60
2019-06-27T00:44:03.505Z,27.50
2019-06-27T00:46:32.036Z,27.50
2019-06-27T00:49:00.872Z,27.50
2019-06-27T00:51:29.673Z,27.50
2019-06-27T00:53:58.308Z,27.40
2019-06-27T00:56:26.994Z,27.40
2019-06-27T00:58:55.556Z,27.40
2019-06-27T01:01:24.029Z,27.40
2019-06-27T01:03:52.597Z,27.30
2019-06-27T01:06:21.148Z,27.30
2019-06-27T01:08:49.768Z,27.20
2019-06-27T01:11:18.312Z,27.20
2019-06-27T01:13:46.806Z,27.20
2019-06-27T01:16:15.348Z,27.20
2019-06-27T01:18:43.845Z,27.20
2019-06-27T01:21:12.680Z,27.10
2019-06-27T01:23:44.228Z,27.20
2019-06-27T01:26:11.430Z,27.10
2019-06-27T01:28:39.892Z,27.10
2019-06-27T01:31:08.749Z,27.10
2019-06-27T01:33:37.300Z,27.10
2019-06-27T01:36:05.864Z,27.10
2019-06-27T01:38:34.728Z,27.00
2019-06-27T01:41:03.388Z,27.00
2019-06-27T01:43:31.934Z,27.00
2019-06-27T01:46:01.054Z,27.00
2019-06-27T01:48:29.701Z,26.90
2019-06-27T01:50:58.274Z,26.90
2019-06-27T01:53:26.821Z,26.90
2019-06-27T01:55:55.384Z,26.90
2019-06-27T01:58:23.996Z,26.80
2019-06-27T02:00:52.612Z,26.80
2019-06-27T02:03:21.320Z,26.80
2019-06-27T02:05:50.003Z,26.70
2019-06-27T02:08:18.725Z,26.70
2019-06-27T02:10:47.531Z,26.70
2019-06-27T02:13:16.092Z,26.70
2019-06-27T02:15:44.628Z,26.70
2019-06-27T02:18:13.592Z,26.60
2019-06-27T02:20:42.428Z,26.60
2019-06-27T02:23:11.265Z,26.60
2019-06-27T02:25:39.890Z,26.60
2019-06-27T02:28:08.740Z,26.50
2019-06-27T02:30:42.236Z,26.50
2019-06-27T02:33:10.960Z,26.50
2019-06-27T02:35:39.915Z,26.50
2019-06-27T02:38:08.563Z,26.40
2019-06-27T02:40:37.256Z,26.40
2019-06-27T02:43:06.305Z,26.40
2019-06-27T02:45:34.872Z,26.40
2019-06-27T02:48:03.544Z,26.30
2019-06-27T02:50:32.466Z,26.30
2019-06-27T02:53:01.002Z,26.30
2019-06-27T02:55:29.825Z,26.30
2019-06-27T02:57:58.344Z,26.30
2019-06-27T03:00:26.901Z,26.20
2019-06-27T03:02:55.432Z,26.20
2019-06-27T03:05:24.357Z,26.10
2019-06-27T03:07:52.912Z,26.10
2019-06-27T03:10:21.720Z,26.10
2019-06-27T03:12:50.279Z,26.10
2019-06-27T03:15:19.980Z,26.00
2019-06-27T03:17:48.545Z,26.00
2019-06-27T03:20:17.000Z,25.90
2019-06-27T03:22:45.796Z,25.90
2019-06-27T03:25:14.334Z,25.90
2019-06-27T03:27:43.263Z,25.90
2019-06-27T03:30:11.953Z,25.90
2019-06-27T03:32:40.805Z,25.80
2019-06-27T03:35:09.465Z,25.80
2019-06-27T03:37:38.056Z,25.80
2019-06-27T03:40:07.805Z,25.80
2019-06-27T03:42:36.827Z,25.80
2019-06-27T03:45:08.549Z,25.80
2019-06-27T03:47:37.183Z,25.80
2019-06-27T03:50:06.301Z,25.80
2019-06-27T03:52:34.866Z,25.80
2019-06-27T03:55:03.684Z,25.80
2019-06-27T03:57:32.914Z,25.80
2019-06-27T04:00:01.699Z,25.70
2019-06-27T04:02:30.188Z,25.70
2019-06-27T04:04:58.720Z,25.70
2019-06-27T04:07:27.283Z,25.60
2019-06-27T04:09:55.820Z,25.60
2019-06-27T04:12:24.377Z,25.50
2019-06-27T04:14:52.969Z,25.50
2019-06-27T04:17:21.537Z,25.40
2019-06-27T04:19:50.089Z,25.40
2019-06-27T04:22:18.653Z,25.30
2019-06-27T04:24:47.187Z,25.30
2019-06-27T04:27:15.671Z,25.20
2019-06-27T04:29:44.206Z,25.20
2019-06-27T04:32:12.851Z,25.10
2019-06-27T04:34:41.322Z,25.10
2019-06-27T04:37:09.892Z,25.10
2019-06-27T04:39:38.420Z,25.10
2019-06-27T04:42:07.043Z,25.00
2019-06-27T04:44:35.577Z,25.00
2019-06-27T04:47:04.058Z,25.10
2019-06-27T04:49:32.587Z,25.00
2019-06-27T04:52:01.451Z,25.10
2019-06-27T04:54:29.976Z,25.10
2019-06-27T04:56:58.457Z,25.20
2019-06-27T04:59:26.983Z,25.20
2019-06-27T05:01:55.463Z,25.20
2019-06-27T05:04:24.263Z,25.20
2019-06-27T05:06:53.052Z,25.20
2019-06-27T05:09:21.580Z,25.30
2019-06-27T05:11:50.180Z,25.30
2019-06-27T05:14:18.695Z,25.30
2019-06-27T05:16:47.177Z,25.30
2019-06-27T05:19:15.700Z,25.40
2019-06-27T05:21:44.183Z,25.40
2019-06-27T05:24:12.643Z,25.40
2019-06-27T05:26:41.209Z,25.40
2019-06-27T05:29:09.723Z,25.50
2019-06-27T05:31:38.204Z,25.50
2019-06-27T05:34:06.960Z,25.50
2019-06-27T05:36:35.787Z,25.50
2019-06-27T05:39:05.684Z,25.50
2019-06-27T05:41:34.358Z,25.50
2019-06-27T05:44:03.082Z,25.50
2019-06-27T05:46:31.607Z,25.60
2019-06-27T05:49:00.411Z,25.50
2019-06-27T05:51:28.871Z,25.60
2019-06-27T05:53:57.419Z,25.60
2019-06-27T05:56:26.179Z,25.60
2019-06-27T05:58:55.059Z,25.60
2019-06-27T06:01:23.579Z,25.60
2019-06-27T06:03:52.069Z,25.60
2019-06-27T06:06:21.031Z,25.70
2019-06-27T06:08:49.824Z,25.80
2019-06-27T06:11:18.348Z,25.80
2019-06-27T06:13:47.171Z,25.80
2019-06-27T06:16:15.707Z,25.90
2019-06-27T06:18:44.550Z,26.00
2019-06-27T06:21:13.071Z,26.00
2019-06-27T06:23:41.553Z,26.00
2019-06-27T06:26:10.007Z,26.00
2019-06-27T06:28:38.623Z,26.10
2019-06-27T06:31:07.360Z,26.10
2019-06-27T06:33:35.919Z,26.10
2019-06-27T06:36:04.440Z,26.20
2019-06-27T06:38:32.891Z,26.20
2019-06-27T06:41:01.437Z,26.30
2019-06-27T06:43:29.888Z,26.40
2019-06-27T06:45:58.451Z,26.40
2019-06-27T06:48:26.908Z,26.40
2019-06-27T06:50:55.358Z,26.40
2019-06-27T06:53:23.835Z,26.50
2019-06-27T06:55:52.288Z,26.50
2019-06-27T06:58:20.834Z,26.50
2019-06-27T07:01:00.934Z,26.60
2019-06-27T07:03:19.491Z,26.60
2019-06-27T07:05:47.947Z,26.70
2019-06-27T07:08:16.470Z,26.70
2019-06-27T07:10:44.949Z,26.80
2019-06-27T07:13:13.705Z,26.80
2019-06-27T07:15:42.265Z,26.60
2019-06-27T07:18:11.045Z,26.70
2019-06-27T07:20:39.524Z,26.70
2019-06-27T07:23:07.987Z,26.70
2019-06-27T07:25:36.823Z,26.80
2019-06-27T07:28:05.283Z,26.80
2019-06-27T07:30:34.098Z,26.90
2019-06-27T07:33:02.648Z,26.90
2019-06-27T07:35:31.107Z,26.90
2019-06-27T07:37:59.664Z,27.00
2019-06-27T07:40:28.183Z,27.10
2019-06-27T07:42:56.731Z,27.10
2019-06-27T07:45:25.263Z,27.20
2019-06-27T07:47:53.716Z,27.20
2019-06-27T07:50:22.439Z,27.20
2019-06-27T07:52:50.977Z,27.20
2019-06-27T07:55:23.217Z,27.20
2019-06-27T07:57:52.242Z,27.20
2019-06-27T08:00:22.454Z,27.20
2019-06-27T08:02:51.494Z,27.20
2019-06-27T08:05:20.426Z,27.20
2019-06-27T08:07:48.973Z,27.20
2019-06-27T08:10:17.564Z,27.20
2019-06-27T08:12:46.197Z,27.20
2019-06-27T08:15:15.655Z,27.30
2019-06-27T08:17:44.143Z,27.30
2019-06-27T08:20:13.348Z,27.30
2019-06-27T08:22:41.803Z,27.40
2019-06-27T08:25:10.623Z,27.40
2019-06-27T08:27:39.612Z,27.40
2019-06-27T08:30:09.658Z,27.40
2019-06-27T08:32:38.182Z,27.50
2019-06-27T08:35:08.110Z,27.50
2019-06-27T08:37:37.227Z,27.50
2019-06-27T08:40:07.354Z,27.50
2019-06-27T08:42:35.878Z,27.60
2019-06-27T08:45:06.062Z,27.50
2019-06-27T08:47:34.963Z,27.60
2019-06-27T08:50:05.104Z,27.60
2019-06-27T08:52:33.948Z,27.70
2019-06-27T08:55:02.475Z,27.70
2019-06-27T08:57:31.329Z,27.70
2019-06-27T08:59:59.868Z,27.70
2019-06-27T09:02:28.449Z,27.80
2019-06-27T09:04:56.931Z,27.80
2019-06-27T09:07:25.760Z,27.90
2019-06-27T09:09:54.548Z,27.90
2019-06-27T09:12:23.010Z,28.00
2019-06-27T09:14:51.576Z,28.00
2019-06-27T09:17:20.163Z,28.10
2019-06-27T09:19:48.621Z,28.00
2019-06-27T09:22:17.470Z,28.10
2019-06-27T09:24:45.995Z,28.10
2019-06-27T09:27:14.543Z,28.10
2019-06-27T09:29:42.999Z,28.10
2019-06-27T09:32:24.745Z,28.10
2019-06-27T09:34:41.651Z,28.20
2019-06-27T09:37:10.133Z,28.20
2019-06-27T09:39:38.583Z,28.30
2019-06-27T09:42:07.255Z,28.30
2019-06-27T09:44:35.808Z,28.30
2019-06-27T09:47:04.336Z,28.40
2019-06-27T09:49:32.864Z,28.40
2019-06-27T09:52:01.483Z,28.50
2019-06-27T09:54:30.011Z,28.50
2019-06-27T09:56:58.491Z,28.50
2019-06-27T09:59:27.356Z,28.60
2019-06-27T10:01:55.849Z,28.60
2019-06-27T10:04:24.376Z,28.70
2019-06-27T10:06:52.928Z,28.70
2019-06-27T10:09:21.799Z,28.80
2019-06-27T10:11:53.287Z,28.90
2019-06-27T10:14:20.619Z,29.00
2019-06-27T10:16:49.114Z,29.20
2019-06-27T10:19:17.631Z,29.40
2019-06-27T10:21:46.085Z,29.50
2019-06-27T10:24:14.812Z,29.70
2019-06-27T10:26:43.340Z,29.70
2019-06-27T10:29:12.103Z,30.00
2019-06-27T10:31:40.896Z,30.10
2019-06-27T10:34:09.806Z,30.30
2019-06-27T10:36:38.677Z,30.50
2019-06-27T10:39:07.340Z,30.70
2019-06-27T10:41:35.884Z,30.90
2019-06-27T10:44:04.431Z,31.10
2019-06-27T10:46:32.978Z,31.20
2019-06-27T10:49:01.798Z,31.40
2019-06-27T10:51:30.343Z,31.60
2019-06-27T10:53:58.796Z,31.80
2019-06-27T10:56:27.347Z,31.90
2019-06-27T10:58:55.804Z,32.10
2019-06-27T11:01:24.613Z,32.30
2019-06-27T11:03:53.405Z,32.40
2019-06-27T11:06:22.296Z,32.50
2019-06-27T11:08:51.086Z,32.60
2019-06-27T11:11:19.617Z,32.80
2019-06-27T11:13:58.215Z,33.00
2019-06-27T11:16:18.992Z,33.00
2019-06-27T11:18:47.447Z,33.30
2019-06-27T11:21:15.995Z,33.60
2019-06-27T11:23:44.447Z,33.80
2019-06-27T11:26:12.995Z,33.90
2019-06-27T11:28:42.018Z,34.10
2019-06-27T11:31:10.572Z,34.30
2019-06-27T11:33:39.403Z,34.50
2019-06-27T11:36:07.886Z,34.60
2019-06-27T11:38:36.415Z,34.70
2019-06-27T11:41:05.031Z,34.80
2019-06-27T11:43:33.488Z,35.00
2019-06-27T11:46:02.399Z,35.00
2019-06-27T11:48:30.875Z,35.30
2019-06-27T11:50:59.331Z,35.40
2019-06-27T11:53:27.823Z,35.70
2019-06-27T11:55:56.356Z,35.90
2019-06-27T11:58:25.235Z,36.20
2019-06-27T12:00:53.759Z,36.50
2019-06-27T12:03:22.315Z,36.60
2019-06-27T12:05:50.915Z,36.80
2019-06-27T12:08:19.397Z,37.00
2019-06-27T12:10:47.922Z,37.30
2019-06-27T12:13:16.730Z,37.80
2019-06-27T12:15:45.612Z,38.20
2019-06-27T12:18:14.433Z,38.40
2019-06-27T12:20:43.228Z,38.60
2019-06-27T12:23:11.775Z,39.20
2019-06-27T12:25:40.232Z,39.80
2019-06-27T12:28:08.715Z,40.40
2019-06-27T12:30:37.328Z,41.20
2019-06-27T12:33:06.213Z,42.30
2019-06-27T12:35:34.663Z,43.40
2019-06-27T12:38:03.201Z,45.00
2019-06-27T12:40:31.671Z,46.50
2019-06-27T12:43:00.221Z,47.80
2019-06-27T12:45:28.771Z,48.90
2019-06-27T12:48:06.073Z,49.90
2019-06-27T12:50:28.135Z,50.80
2019-06-27T12:52:56.588Z,51.40
2019-06-27T12:55:25.412Z,52.00
2019-06-27T12:57:54.228Z,52.50
2019-06-27T13:00:23.855Z,53.60
2019-06-27T13:02:52.375Z,54.50
2019-06-27T13:05:20.940Z,54.90
2019-06-27T13:07:49.455Z,55.60
2019-06-27T13:10:18.183Z,55.90
2019-06-27T13:12:46.771Z,55.80
2019-06-27T13:15:15.997Z,56.10
2019-06-27T13:17:44.524Z,56.40
2019-06-27T13:20:15.583Z,56.90
2019-06-27T13:22:44.059Z,56.90
2019-06-27T13:25:12.588Z,57.10
2019-06-27T13:27:41.136Z,57.10
2019-06-27T13:30:10.197Z,56.40
2019-06-27T13:32:39.116Z,56.70
2019-06-27T13:35:08.089Z,56.80
2019-06-27T13:37:36.977Z,56.30
2019-06-27T13:40:08.871Z,56.00
2019-06-27T13:42:38.645Z,56.20
2019-06-27T13:45:07.891Z,55.90
2019-06-27T13:47:36.375Z,55.60
2019-06-27T13:50:06.076Z,54.80
2019-06-27T13:52:34.669Z,52.80
2019-06-27T13:55:03.293Z,51.00
2019-06-27T13:57:31.835Z,49.60
2019-06-27T14:00:01.451Z,47.90
2019-06-27T14:02:30.128Z,46.70
2019-06-27T14:04:58.575Z,45.70
2019-06-27T14:07:27.062Z,44.80
2019-06-27T14:09:57.283Z,44.00
2019-06-27T14:12:25.935Z,43.10
2019-06-27T14:14:59.702Z,42.40
2019-06-27T14:17:24.587Z,41.80
2019-06-27T14:19:53.046Z,41.30
2019-06-27T14:22:32.825Z,40.90
2019-06-27T14:24:52.095Z,40.60
2019-06-27T14:27:20.571Z,40.40
2019-06-27T14:29:49.096Z,40.10
2019-06-27T14:32:17.904Z,39.90
2019-06-27T14:34:46.408Z,39.60
2019-06-27T14:37:14.924Z,39.50
2019-06-27T14:39:43.467Z,39.20
2019-06-27T14:42:11.947Z,39.00
2019-06-27T14:44:40.399Z,38.80
2019-06-27T14:47:09.203Z,38.70
2019-06-27T14:49:37.992Z,38.60
2019-06-27T14:52:06.452Z,38.50
2019-06-27T14:54:35.003Z,38.40
2019-06-27T14:57:03.457Z,38.40
2019-06-27T14:59:32.007Z,38.40
2019-06-27T15:02:00.464Z,38.30
2019-06-27T15:04:29.087Z,38.10
2019-06-27T15:06:57.539Z,37.90
2019-06-27T15:09:26.367Z,37.90
2019-06-27T15:11:54.887Z,37.70
2019-06-27T15:14:23.371Z,37.70
2019-06-27T15:16:51.972Z,37.50
2019-06-27T15:19:20.456Z,37.40
2019-06-27T15:21:48.983Z,37.30
2019-06-27T15:24:17.521Z,37.30
2019-06-27T15:26:46.075Z,37.20
2019-06-27T15:29:14.536Z,37.10
2019-06-27T15:31:43.091Z,37.00
2019-06-27T15:34:11.539Z,37.00
2019-06-27T15:36:40.221Z,36.80
2019-06-27T15:39:11.875Z,36.80
2019-06-27T15:41:39.379Z,36.80
2019-06-27T15:44:07.845Z,36.70
2019-06-27T15:46:36.391Z,36.70
2019-06-27T15:49:05.259Z,36.70
2019-06-27T15:51:33.707Z,36.50
2019-06-27T15:54:02.191Z,36.50
2019-06-27T15:56:30.714Z,36.50
2019-06-27T15:58:59.271Z,36.40
2019-06-27T16:01:27.796Z,36.40
2019-06-27T16:03:56.657Z,36.30
2019-06-27T16:06:25.267Z,36.10
2019-06-27T16:08:54.115Z,36.00
2019-06-27T16:11:22.939Z,35.90
2019-06-27T16:13:51.424Z,35.80
2019-06-27T16:16:20.272Z,35.80
2019-06-27T16:18:48.757Z,35.80
2019-06-27T16:21:17.288Z,35.70
2019-06-27T16:23:45.840Z,35.60
2019-06-27T16:26:14.431Z,35.60
2019-06-27T16:28:43.192Z,35.50
2019-06-27T16:31:11.791Z,35.40
2019-06-27T16:33:40.449Z,35.30
2019-06-27T16:36:24.194Z,35.20
2019-06-27T16:38:39.158Z,35.10
2019-06-27T16:41:07.780Z,35.00
2019-06-27T16:43:36.376Z,34.80
2019-06-27T16:46:04.851Z,34.70
2019-06-27T16:48:33.704Z,34.60
2019-06-27T16:51:02.348Z,34.40
2019-06-27T16:53:30.879Z,34.20
2019-06-27T16:55:59.427Z,33.90
2019-06-27T16:58:28.257Z,33.60
2019-06-27T17:00:56.779Z,33.40
2019-06-27T17:03:26.275Z,33.20
2019-06-27T17:05:55.540Z,33.00
2019-06-27T17:08:24.086Z,32.80
2019-06-27T17:10:52.908Z,32.60
2019-06-27T17:13:21.457Z,32.50
2019-06-27T17:15:49.916Z,32.30
2019-06-27T17:18:18.511Z,32.10
2019-06-27T17:20:46.999Z,31.90
2019-06-27T17:23:15.519Z,31.80
2019-06-27T17:25:43.995Z,31.70
2019-06-27T17:28:12.452Z,31.50
2019-06-27T17:30:41.376Z,31.40
2019-06-27T17:33:09.835Z,31.30
2019-06-27T17:35:38.312Z,31.20
2019-06-27T17:38:06.763Z,31.10
2019-06-27T17:40:35.219Z,31.10
2019-06-27T17:43:03.767Z,31.00
2019-06-27T17:45:32.289Z,30.80
2019-06-27T17:48:00.764Z,30.70
2019-06-27T17:50:29.640Z,30.70
2019-06-27T17:52:58.191Z,30.60
2019-06-27T17:55:26.719Z,30.50
2019-06-27T17:57:55.491Z,30.40
2019-06-27T18:00:23.973Z,30.30
2019-06-27T18:02:52.496Z,30.20
2019-06-27T18:05:21.047Z,30.20
2019-06-27T18:07:49.501Z,30.10
2019-06-27T18:10:18.215Z,30.00
2019-06-27T18:12:46.671Z,29.90
2019-06-27T18:15:15.963Z,29.80
2019-06-27T18:17:44.447Z,29.80
2019-06-27T18:20:13.436Z,29.70
2019-06-27T18:22:42.414Z,29.60
2019-06-27T18:25:11.318Z,29.50
2019-06-27T18:27:40.136Z,29.40
2019-06-27T18:30:09.133Z,29.40
2019-06-27T18:32:37.616Z,29.30
2019-06-27T18:35:06.679Z,29.20
2019-06-27T18:37:35.131Z,29.10
2019-06-27T18:40:04.335Z,29.10
2019-06-27T18:42:32.798Z,29.00
2019-06-27T18:45:01.362Z,28.90
2019-06-27T18:47:30.241Z,28.80
2019-06-27T18:49:58.722Z,28.80
2019-06-27T18:52:27.252Z,28.70
2019-06-27T18:54:55.732Z,28.70
2019-06-27T18:57:24.475Z,28.60
2019-06-27T18:59:53.875Z,28.50
2019-06-27T19:02:22.454Z,28.50
2019-06-27T19:04:50.938Z,28.40
2019-06-27T19:07:19.459Z,28.30
2019-06-27T19:09:47.918Z,28.30
2019-06-27T19:12:19.190Z,28.20
2019-06-27T19:14:47.049Z,28.10
2019-06-27T19:17:15.577Z,28.10
2019-06-27T19:19:51.902Z,28.00
2019-06-27T19:22:38.535Z,28.00
2019-06-27T19:25:09.620Z,27.90
2019-06-27T19:27:38.172Z,27.80
2019-06-27T19:30:07.876Z,27.70
2019-06-27T19:32:36.700Z,27.70
2019-06-27T19:35:07.129Z,27.60
2019-06-27T19:37:35.606Z,27.50
2019-06-27T19:40:06.180Z,27.50
2019-06-27T19:42:34.707Z,27.40
2019-06-27T19:45:03.732Z,27.30
2019-06-27T19:47:32.291Z,27.30
2019-06-27T19:50:00.808Z,27.20
2019-06-27T19:52:29.327Z,27.10
2019-06-27T19:54:57.807Z,27.10
2019-06-27T19:57:26.404Z,27.00
2019-06-27T19:59:55.841Z,26.90
2019-06-27T20:02:24.729Z,26.80
2019-06-27T20:04:53.251Z,26.70
2019-06-27T20:07:21.827Z,26.70
2019-06-27T20:09:50.333Z,26.50
2019-06-27T20:12:18.966Z,26.40
2019-06-27T20:14:47.487Z,26.30
2019-06-27T20:17:16.009Z,26.20
2019-06-27T20:19:44.503Z,26.10
2019-06-27T20:22:13.063Z,26.00
2019-06-27T20:24:41.516Z,25.90
2019-06-27T20:27:10.071Z,25.80
2019-06-27T20:29:38.608Z,25.70
2019-06-27T20:32:07.231Z,25.70
2019-06-27T20:34:39.240Z,25.60
2019-06-27T20:37:05.888Z,25.50
2019-06-27T20:39:34.344Z,25.40
2019-06-27T20:42:03.101Z,25.30
2019-06-27T20:44:31.614Z,25.20
2019-06-27T20:47:00.093Z,25.20
2019-06-27T20:49:28.616Z,25.10
2019-06-27T20:51:57.527Z,25.00
2019-06-27T20:54:26.239Z,24.90
2019-06-27T20:56:54.767Z,24.80
2019-06-27T20:59:23.248Z,24.70
2019-06-27T21:01:51.771Z,24.60
2019-06-27T21:04:20.320Z,24.50
2019-06-27T21:06:48.783Z,24.50
2019-06-27T21:09:17.334Z,24.40
2019-06-27T21:11:45.792Z,24.30
2019-06-27T21:14:14.339Z,24.20
2019-06-27T21:16:42.861Z,24.20
2019-06-27T21:19:11.335Z,24.10
2019-06-27T21:21:39.788Z,24.00
2019-06-27T21:24:08.538Z,23.90
2019-06-27T21:26:37.064Z,23.90
2019-06-27T21:29:05.611Z,23.80
2019-06-27T21:31:34.396Z,23.80
2019-06-27T21:34:02.983Z,23.70
2019-06-27T21:36:31.847Z,23.70
2019-06-27T21:39:07.520Z,23.70
2019-06-27T21:41:30.572Z,23.60
2019-06-27T21:43:59.100Z,23.60
2019-06-27T21:46:27.652Z,23.50
2019-06-27T21:48:56.103Z,23.50
2019-06-27T21:51:24.579Z,23.50
2019-06-27T21:53:53.035Z,23.40
2019-06-27T21:56:21.952Z,23.40
2019-06-27T21:58:50.471Z,23.40
2019-06-27T22:01:19.155Z,23.30
2019-06-27T22:03:47.753Z,23.30
2019-06-27T22:06:16.247Z,23.20
2019-06-27T22:08:44.768Z,23.20
2019-06-27T22:11:13.223Z,23.20
2019-06-27T22:13:41.698Z,23.20
2019-06-27T22:16:10.167Z,23.20
2019-06-27T22:18:38.719Z,23.20
2019-06-27T22:21:07.313Z,23.20
2019-06-27T22:23:35.846Z,23.10
2019-06-27T22:26:04.605Z,23.10
2019-06-27T22:28:33.242Z,23.00
2019-06-27T22:31:02.127Z,23.00
2019-06-27T22:33:30.603Z,23.00
2019-06-27T22:35:59.395Z,22.90
2019-06-27T22:38:45.734Z,22.90
2019-06-27T22:41:31.812Z,22.80
2019-06-27T22:44:18.588Z,22.80
2019-06-27T22:47:05.004Z,22.80
2019-06-27T22:49:32.967Z,22.80
2019-06-27T22:52:18.219Z,22.70
2019-06-27T22:55:00.207Z,22.70
2019-06-27T22:57:28.741Z,22.60
2019-06-27T22:59:57.295Z,22.60
2019-06-27T23:02:26.100Z,22.60
2019-06-27T23:04:54.575Z,22.50
2019-06-27T23:07:23.032Z,22.40
2019-06-27T23:09:56.753Z,22.40
2019-06-27T23:12:21.771Z,22.30
2019-06-27T23:14:50.645Z,22.30
2019-06-27T23:17:19.361Z,22.20
2019-06-27T23:19:47.879Z,22.20
2019-06-27T23:22:16.367Z,22.20
2019-06-27T23:24:44.897Z,22.10
2019-06-27T23:27:13.689Z,22.10
2019-06-27T23:29:42.674Z,22.00
2019-06-27T23:32:11.151Z,22.00
2019-06-27T23:34:40.071Z,21.90
2019-06-27T23:37:08.623Z,21.90
2019-06-27T23:39:37.144Z,21.90
2019-06-27T23:42:05.608Z,21.90
2019-06-27T23:44:34.155Z,21.90
2019-06-27T23:47:02.611Z,21.80
2019-06-27T23:49:31.091Z,21.80
2019-06-27T23:51:59.554Z,21.70
2019-06-27T23:54:28.030Z,21.60
2019-06-27T23:56:56.483Z,21.60
2019-06-27T23:59:24.967Z,21.60
